METAR Data
IDs: Format: Raw Decoded Include TAF

Data at: 1216 UTC 09 Dec 2019

KMBT 091155Z AUTO 18013G18KT 10SM OVC023 14/08 A2987 RMK A01
KMBT 091135Z AUTO 19012G18KT 10SM OVC023 14/08 A2987 RMK A01
KMBT 091115Z AUTO 19014G21KT 10SM OVC024 14/08 A2988 RMK A01
KMBT 091055Z AUTO 19015KT 10SM OVC025 14/08 A2988 RMK A01
KMBT 091035Z AUTO 19013G22KT 10SM OVC027 14/08 A2989 RMK A01
KMBT 091015Z AUTO 18014G20KT 10SM BKN027 OVC037 13/07 A2988 RMK A01
KMBT 090955Z AUTO 18016KT 10SM BKN028 OVC035 13/07 A2989 RMK A01
KMBT 090935Z AUTO 18011G17KT 10SM BKN028 OVC033 13/07 A2990 RMK A01
KMBT 090915Z AUTO 19014KT 10SM BKN028 OVC033 13/07 A2991 RMK A01
KMBT 090855Z AUTO 19012KT 10SM OVC032 13/07 A2992 RMK A01
KMBT 090835Z AUTO 19011G21KT 10SM BKN030 OVC035 13/07 A2991 RMK A01
KMBT 090815Z AUTO 19012G19KT 10SM OVC031 13/07 A2993 RMK A01
KMBT 090755Z AUTO 19017KT 10SM OVC030 13/07 A2993 RMK A01
KMBT 090735Z AUTO 18014G22KT 10SM BKN028 BKN032 OVC043 13/07 A2993 RMK A01
KMBT 090715Z AUTO 18016KT 10SM BKN027 OVC033 14/06 A2994 RMK A01
KMBT 090655Z AUTO 18014G20KT 10SM BKN027 OVC033 14/06 A2994 RMK A01
KMBT 090635Z AUTO 17013KT 10SM OVC026 14/06 A2994 RMK A01
KMBT 090615Z AUTO 16011G18KT 10SM OVC027 14/06 A2995 RMK A01
KMBT 090555Z AUTO 18012KT 10SM OVC028 14/05 A2998 RMK A01
KMBT 090535Z AUTO 17010KT 10SM OVC031 14/05 A2998 RMK A01
KMBT 090515Z AUTO 17008KT 10SM OVC031 13/05 A2999 RMK A01
KMBT 090455Z AUTO 15006G11KT 10SM OVC032 14/05 A2999 RMK A01
KMBT 090435Z AUTO 17008G14KT 10SM OVC033 14/05 A3000 RMK A01
KMBT 090415Z AUTO 18008G15KT 10SM OVC033 14/05 A3000 RMK A01
KMBT 090355Z AUTO 16013KT 10SM OVC032 14/05 A2999 RMK A01
KMBT 090335Z AUTO 17011G16KT 10SM OVC031 14/05 A3000 RMK A01
KMBT 090315Z AUTO 17015G20KT 10SM OVC031 14/05 A2999 RMK A01
KMBT 090255Z AUTO 17011G19KT 10SM OVC032 14/05 A2999 RMK A01
KMBT 090235Z AUTO 16011G18KT 10SM OVC032 14/05 A2999 RMK A01
KMBT 090215Z AUTO 16011KT 10SM OVC035 13/05 A3000 RMK A01
KMBT 090155Z AUTO 17010KT 10SM BKN036 BKN042 OVC060 13/05 A3001 RMK A01
KMBT 090135Z AUTO 15010KT 10SM OVC036 13/05 A3002 RMK A01
KMBT 090115Z AUTO 17007G12KT 10SM OVC038 13/05 A3003 RMK A01
KMBT 090055Z AUTO 16007G12KT 10SM BKN039 OVC047 14/05 A3003 RMK A01
KMBT 090035Z AUTO 16008KT 10SM BKN038 BKN049 OVC065 14/06 A3004 RMK A01
KMBT 090015Z AUTO 16008KT 10SM BKN039 BKN055 OVC065 14/06 A3005 RMK A01
KMBT 082355Z AUTO 16008KT 10SM OVC040 14/06 A3004 RMK A01
KMBT 082335Z AUTO 17011KT 10SM BKN041 OVC048 14/06 A3004 RMK A01
KMBT 082315Z AUTO 16011KT 10SM BKN041 OVC055 14/06 A3003 RMK A01
KMBT 082255Z AUTO 15009KT 10SM BKN042 BKN050 OVC055 15/06 A3003 RMK A01
KMBT 082235Z AUTO 17009KT 10SM BKN040 OVC047 15/06 A3005 RMK A01
KMBT 082215Z AUTO 17009KT 9SM OVC040 15/06 A3006 RMK A01
KMBT 082155Z AUTO 17009KT 10SM OVC041 15/06 A3005 RMK A01
KMBT 082135Z AUTO 16007KT 10SM OVC040 15/06 A3005 RMK A01
KMBT 082115Z AUTO 15008KT 10SM BKN041 OVC048 15/07 A3006 RMK A01
KMBT 082055Z AUTO 18011G18KT 10SM OVC040 16/07 A3007 RMK A01
KMBT 082035Z AUTO 18013G19KT 10SM OVC039 16/07 A3008 RMK A01
KMBT 082015Z AUTO 17010KT 10SM BKN041 OVC070 17/07 A3006 RMK A01
KMBT 081955Z AUTO 19012G18KT 10SM BKN042 OVC050 17/07 A3007 RMK A01
KMBT 081935Z AUTO 17013KT 10SM BKN042 BKN050 17/07 A3007 RMK A01
KMBT 081915Z AUTO 19010G19KT 10SM BKN041 17/07 A3008 RMK A01
KMBT 081855Z AUTO 18013G23KT 10SM FEW042 17/07 A3008 RMK A01
KMBT 081835Z AUTO 19014G23KT 10SM FEW042 SCT065 17/07 A3009 RMK A01
KMBT 081815Z AUTO 19014G20KT 10SM BKN060 17/07 A3010 RMK A01
KMBT 081755Z AUTO 18016G21KT 10SM OVC060 16/07 A3011 RMK A01
KMBT 081735Z AUTO 19013G22KT 10SM OVC060 16/06 A3012 RMK A01
KMBT 081715Z AUTO 17013KT 10SM OVC060 16/07 A3014 RMK A01
KMBT 081655Z AUTO 19011G20KT 10SM OVC060 15/06 A3016 RMK A01
KMBT 081635Z AUTO 18015KT 10SM FEW050 OVC055 15/06 A3017 RMK A01
KMBT 081615Z AUTO 18014KT 10SM OVC055 15/06 A3017 RMK A01
KMBT 081555Z AUTO 17011KT 10SM OVC055 14/06 A3018 RMK A01
KMBT 081535Z AUTO 17012KT 10SM OVC055 13/06 A3019 RMK A01
KMBT 081515Z AUTO 17010KT 9SM OVC055 13/06 A3020 RMK A01
KMBT 081455Z AUTO 16012KT 10SM FEW048 OVC055 12/06 A3020 RMK A01
KMBT 081430Z AUTO 16011KT 10SM FEW048 OVC055 12/06 A3020 RMK A01
KMBT 081415Z AUTO 16010KT 10SM OVC055 11/06 A3020 RMK A01
KMBT 081355Z AUTO 17010G17KT 8SM OVC055 11/06 A3019 RMK A01
KMBT 081335Z AUTO 17009KT 10SM OVC055 11/06 A3020 RMK A01
KMBT 081315Z AUTO 17008KT 10SM OVC055 09/06 A3021 RMK A01
KMBT 081255Z AUTO 17003KT 10SM OVC055 06/03 A3020 RMK A01
KMBT 081235Z AUTO 00000KT 10SM OVC055 04/03 A3020 RMK A01
KMBT 081215Z AUTO 00000KT 10SM OVC050 04/02 A3020 RMK A01
KMBT 081155Z AUTO 00000KT 10SM OVC050 03/01 A3020 RMK A01
KMBT 081135Z AUTO 00000KT 10SM OVC050 02/00 A3020 RMK A01
KMBT 081115Z AUTO 00000KT 10SM OVC050 02/01 A3019 RMK A01
KMBT 081055Z AUTO 00000KT 10SM OVC050 02/01 A3018 RMK A01
KMBT 081035Z AUTO 00000KT 10SM FEW036 BKN048 01/01 A3018 RMK A01
KMBT 081015Z AUTO 00000KT 10SM SCT037 OVC047 01/01 A3018 RMK A01
KMBT 080955Z AUTO 00000KT 10SM FEW029 BKN043 OVC050 02/01 A3018 RMK A01
KMBT 080935Z AUTO 00000KT 10SM SCT028 SCT035 BKN048 02/01 A3018 RMK A01
KMBT 080915Z AUTO 00000KT 8SM SCT028 SCT050 01/01 A3018 RMK A01
KMBT 080855Z AUTO 00000KT 9SM SCT027 BKN035 BKN041 02/01 A3019 RMK A01
KMBT 080835Z AUTO 00000KT 9SM BKN035 OVC045 01/01 A3020 RMK A01
KMBT 080815Z AUTO 00000KT 9SM OVC033 02/01 A3021 RMK A01
KMBT 080755Z AUTO 00000KT 9SM OVC031 02/01 A3021 RMK A01
KMBT 080735Z AUTO 00000KT 10SM BKN028 BKN039 OVC055 02/01 A3021 RMK A01
KMBT 080715Z AUTO 00000KT 10SM FEW028 BKN041 BKN048 02/02 A3022 RMK A01
KMBT 080655Z AUTO 00000KT 9SM FEW031 BKN041 OVC048 02/01 A3022 RMK A01
KMBT 080635Z AUTO 00000KT 10SM FEW032 OVC042 03/02 A3022 RMK A01
KMBT 080615Z AUTO 00000KT 10SM FEW035 OVC044 03/02 A3022 RMK A01
KMBT 080555Z AUTO 00000KT 10SM OVC044 03/02 A3022 RMK A01
KMBT 080535Z AUTO 00000KT 9SM OVC043 03/02 A3022 RMK A01
KMBT 080515Z AUTO 00000KT 10SM OVC042 03/03 A3023 RMK A01
KMBT 080455Z AUTO 00000KT 9SM OVC043 03/03 A3023 RMK A01
KMBT 080435Z AUTO 00000KT 8SM OVC045 04/03 A3024 RMK A01
KMBT 080415Z AUTO 00000KT 7SM FEW033 FEW042 OVC047 04/03 A3024 RMK A01
KMBT 080355Z AUTO 00000KT 9SM OVC047 04/04 A3024 RMK A01
KMBT 080335Z AUTO 00000KT 10SM OVC046 04/03 A3024 RMK A01
KMBT 080315Z AUTO 00000KT 10SM BKN045 05/04 A3024 RMK A01
KMBT 080255Z AUTO 00000KT 10SM BKN044 BKN050 05/04 A3024 RMK A01
KMBT 080235Z AUTO 00000KT 10SM BKN044 OVC050 05/04 A3025 RMK A01
KMBT 080215Z AUTO 00000KT 10SM OVC043 06/04 A3025 RMK A01
KMBT 080155Z AUTO 00000KT 10SM OVC044 06/04 A3025 RMK A01
KMBT 080135Z AUTO 09003KT 10SM BKN042 BKN047 06/04 A3025 RMK A01
KMBT 080115Z AUTO 00000KT 10SM OVC043 06/04 A3026 RMK A01
KMBT 080055Z AUTO 00000KT 10SM BKN044 07/05 A3026 RMK A01
KMBT 080035Z AUTO 00000KT 10SM BKN041 BKN047 07/05 A3026 RMK A01